createdAt,value
2022-09-27T00:01:26.145Z,98336.50
2022-09-27T00:03:55.563Z,98322.19
2022-09-27T00:06:26.330Z,98317.06
2022-09-27T00:08:53.813Z,98319.09
2022-09-27T00:11:37.065Z,98311.91
2022-09-27T00:14:08.474Z,98329.72
2022-09-27T00:16:37.017Z,98340.66
2022-09-27T00:19:13.924Z,98336.34
2022-09-27T00:21:43.534Z,98330.03
2022-09-27T00:24:15.833Z,98310.25
2022-09-27T00:26:43.385Z,98312.66
2022-09-27T00:29:11.102Z,98322.16
2022-09-27T00:31:38.755Z,98299.16
2022-09-27T00:34:07.640Z,98296.47
2022-09-27T00:36:38.373Z,98292.56
2022-09-27T00:39:06.170Z,98284.69
2022-09-27T00:41:39.189Z,98284.72
2022-09-27T00:44:25.162Z,98286.28
2022-09-27T00:47:27.214Z,98282.94
2022-09-27T00:50:09.632Z,98264.16
2022-09-27T00:52:42.222Z,98275.47
2022-09-27T00:55:24.346Z,98266.25
2022-09-27T00:57:52.472Z,98262.72
2022-09-27T01:00:24.234Z,98273.06
2022-09-27T01:02:56.510Z,98267.03
2022-09-27T01:05:30.862Z,98267.47
2022-09-27T01:08:00.878Z,98257.16
2022-09-27T01:10:37.257Z,98249.91
2022-09-27T01:13:21.050Z,98252.31
2022-09-27T01:15:54.171Z,98251.56
2022-09-27T01:18:43.612Z,98255.91
2022-09-27T01:21:23.175Z,98269.00
2022-09-27T01:24:26.902Z,98265.81
2022-09-27T01:27:16.861Z,98261.06
2022-09-27T01:30:10.965Z,98262.25
2022-09-27T01:33:08.220Z,98266.63
2022-09-27T01:36:00.339Z,98272.59
2022-09-27T01:38:47.737Z,98256.00
2022-09-27T01:41:16.805Z,98256.94
2022-09-27T01:44:13.356Z,98183.06
2022-09-27T01:46:58.980Z,98245.84
2022-09-27T01:49:58.141Z,98234.69
2022-09-27T01:52:52.740Z,98241.03
2022-09-27T01:55:28.781Z,98251.81
2022-09-27T01:58:48.103Z,98249.03
2022-09-27T02:01:19.255Z,98235.06
2022-09-27T02:03:52.190Z,98239.50
2022-09-27T02:06:47.052Z,98253.78
2022-09-27T02:09:23.141Z,98255.81
2022-09-27T02:12:14.073Z,98262.91
2022-09-27T02:14:54.976Z,98261.72
2022-09-27T02:17:52.068Z,98260.56
2022-09-27T02:20:29.825Z,98248.22
2022-09-27T02:23:23.643Z,98268.22
2022-09-27T02:26:12.302Z,98267.41
2022-09-27T02:28:48.406Z,98274.09
2022-09-27T02:31:23.903Z,98264.47
2022-09-27T02:33:58.461Z,98242.97
2022-09-27T02:36:27.846Z,98264.53
2022-09-27T02:38:55.544Z,98252.28
2022-09-27T02:41:24.671Z,98252.69
2022-09-27T02:43:57.110Z,98253.50
2022-09-27T02:46:32.475Z,98247.53
2022-09-27T02:49:33.541Z,98245.59
2022-09-27T02:52:44.754Z,98249.91
2022-09-27T02:55:15.417Z,98239.16
2022-09-27T02:58:18.135Z,98245.47
2022-09-27T03:01:29.837Z,98237.50
2022-09-27T03:04:29.198Z,98235.91
2022-09-27T03:07:00.299Z,98229.16
2022-09-27T03:09:42.373Z,98242.22
2022-09-27T03:12:09.853Z,98238.25
2022-09-27T03:14:37.181Z,98230.78
2022-09-27T03:17:19.508Z,98219.25
2022-09-27T03:20:05.791Z,98208.59
2022-09-27T03:22:49.172Z,98205.06
2022-09-27T03:25:17.044Z,98197.88
2022-09-27T03:27:47.627Z,98208.47
2022-09-27T03:30:16.252Z,98221.66
2022-09-27T03:32:47.809Z,98204.13
2022-09-27T03:35:33.637Z,98216.06
2022-09-27T03:38:01.594Z,98218.84
2022-09-27T03:40:28.768Z,98227.13
2022-09-27T03:42:56.385Z,98225.56
2022-09-27T03:45:23.604Z,98230.66
2022-09-27T03:48:01.673Z,98223.13
2022-09-27T03:50:36.103Z,98229.19
2022-09-27T03:53:05.189Z,98226.00
2022-09-27T03:55:33.413Z,98226.38
2022-09-27T03:58:01.735Z,98219.22
2022-09-27T04:00:29.600Z,98207.25
2022-09-27T04:02:56.857Z,98205.22
2022-09-27T04:05:25.928Z,98200.88
2022-09-27T04:07:57.842Z,98213.25
2022-09-27T04:10:25.288Z,98213.63
2022-09-27T04:12:52.731Z,98193.78
2022-09-27T04:15:23.776Z,98193.69
2022-09-27T04:17:52.273Z,98198.88
2022-09-27T04:20:46.678Z,98198.41
2022-09-27T04:23:14.839Z,98198.41
2022-09-27T04:25:49.965Z,98201.66
2022-09-27T04:28:43.309Z,98193.38
2022-09-27T04:31:12.386Z,98210.47
2022-09-27T04:34:14.867Z,98192.56
2022-09-27T04:36:42.518Z,98194.59
2022-09-27T04:39:16.299Z,98193.03
2022-09-27T04:41:46.082Z,98188.31
2022-09-27T04:44:13.741Z,98190.34
2022-09-27T04:46:51.641Z,98202.28
2022-09-27T04:49:19.407Z,98205.91
2022-09-27T04:51:47.411Z,98207.03
2022-09-27T04:54:14.862Z,98198.03
2022-09-27T04:56:51.515Z,98183.88
2022-09-27T04:59:19.939Z,98169.22
2022-09-27T05:01:47.717Z,98172.84
2022-09-27T05:04:32.042Z,98135.19
2022-09-27T05:07:01.016Z,98133.25
2022-09-27T05:09:37.057Z,98142.81
2022-09-27T05:12:07.576Z,98136.09
2022-09-27T05:14:35.065Z,98127.84
2022-09-27T05:17:10.132Z,98133.44
2022-09-27T05:20:06.675Z,98123.81
2022-09-27T05:22:41.341Z,98121.44
2022-09-27T05:25:09.072Z,98134.16
2022-09-27T05:27:36.508Z,98143.72
2022-09-27T05:30:05.074Z,98156.09
2022-09-27T05:32:51.569Z,98146.97
2022-09-27T05:35:38.049Z,98153.41
2022-09-27T05:38:06.502Z,98154.63
2022-09-27T05:40:41.439Z,98140.03
2022-09-27T05:43:11.675Z,98137.69
2022-09-27T05:45:39.135Z,98125.06
2022-09-27T05:48:07.515Z,98121.91
2022-09-27T05:50:43.142Z,98126.28
2022-09-27T05:53:11.472Z,98125.50
2022-09-27T05:55:38.730Z,98133.84
2022-09-27T05:58:10.029Z,98147.41
2022-09-27T06:00:45.794Z,98155.00
2022-09-27T06:03:47.379Z,98167.34
2022-09-27T06:06:39.349Z,98171.75
2022-09-27T06:09:14.500Z,98168.97
2022-09-27T06:11:45.486Z,98163.47
2022-09-27T06:14:15.702Z,98154.44
2022-09-27T06:17:11.912Z,98147.72
2022-09-27T06:19:42.949Z,98136.19
2022-09-27T06:22:10.249Z,98134.63
2022-09-27T06:24:53.835Z,98151.72
2022-09-27T06:27:26.414Z,98154.09
2022-09-27T06:30:20.585Z,98178.78
2022-09-27T06:33:02.926Z,98174.47
2022-09-27T06:35:38.903Z,98152.16
2022-09-27T06:38:12.053Z,98162.94
2022-09-27T06:40:46.816Z,98157.38
2022-09-27T06:43:22.555Z,98166.16
2022-09-27T06:46:06.192Z,98150.69
2022-09-27T06:48:46.127Z,98133.59
2022-09-27T06:51:18.176Z,98119.25
2022-09-27T06:53:45.752Z,98128.41
2022-09-27T06:56:13.801Z,98132.78
2022-09-27T06:59:06.545Z,98141.13
2022-09-27T07:01:42.901Z,98140.72
2022-09-27T07:04:19.506Z,98145.09
2022-09-27T07:06:58.214Z,98135.09
2022-09-27T07:09:29.329Z,98122.69
2022-09-27T07:11:56.719Z,98118.69
2022-09-27T07:14:26.584Z,98121.81
2022-09-27T07:16:54.944Z,98130.19
2022-09-27T07:19:22.261Z,98108.66
2022-09-27T07:22:12.724Z,98110.22
2022-09-27T07:24:41.946Z,98115.03
2022-09-27T07:27:09.765Z,98121.38
2022-09-27T07:29:37.323Z,98105.44
2022-09-27T07:32:05.276Z,98094.25
2022-09-27T07:34:34.319Z,98095.00
2022-09-27T07:37:05.587Z,98104.56
2022-09-27T07:39:37.022Z,98096.59
2022-09-27T07:42:06.472Z,98106.47
2022-09-27T07:44:36.260Z,98106.00
2022-09-27T07:47:32.175Z,98111.16
2022-09-27T07:50:12.591Z,98105.13
2022-09-27T07:52:51.285Z,98103.56
2022-09-27T07:55:36.258Z,98087.56
2022-09-27T07:58:11.672Z,98096.19
2022-09-27T08:00:41.049Z,98086.84
2022-09-27T08:03:12.180Z,98096.78
2022-09-27T08:05:39.384Z,98093.84
2022-09-27T08:08:07.160Z,98101.25
2022-09-27T08:10:35.590Z,98094.78
2022-09-27T08:13:05.337Z,98112.22
2022-09-27T08:15:35.905Z,98108.16
2022-09-27T08:18:03.496Z,98107.97
2022-09-27T08:21:00.704Z,98113.81
2022-09-27T08:24:06.783Z,98098.22
2022-09-27T08:26:54.447Z,98087.34
2022-09-27T08:29:32.531Z,98090.00
2022-09-27T08:32:00.981Z,98087.25
2022-09-27T08:34:29.448Z,98066.06
2022-09-27T08:36:56.754Z,98085.47
2022-09-27T08:39:25.100Z,98064.28
2022-09-27T08:42:07.593Z,98073.00
2022-09-27T08:44:38.314Z,98059.00
2022-09-27T08:47:15.198Z,98058.69
2022-09-27T08:50:07.254Z,98064.59
2022-09-27T08:52:42.694Z,98052.13
2022-09-27T08:55:20.742Z,98053.19
2022-09-27T08:57:56.430Z,98049.09
2022-09-27T09:00:27.023Z,98042.47
2022-09-27T09:02:58.106Z,98041.97
2022-09-27T09:05:34.951Z,98066.50
2022-09-27T09:08:43.591Z,98061.81
2022-09-27T09:11:58.311Z,98053.06
2022-09-27T09:14:34.369Z,98057.41
2022-09-27T09:17:29.169Z,98058.56
2022-09-27T09:20:32.887Z,98051.50
2022-09-27T09:23:25.977Z,98054.38
2022-09-27T09:26:18.243Z,98053.47
2022-09-27T09:29:12.686Z,98053.53
2022-09-27T09:31:53.201Z,98049.44
2022-09-27T09:34:28.259Z,98041.81
2022-09-27T09:37:06.157Z,98030.16
2022-09-27T09:39:46.606Z,98030.16
2022-09-27T09:42:35.895Z,98025.78
2022-09-27T09:45:18.075Z,98011.44
2022-09-27T09:47:54.925Z,98019.56
2022-09-27T09:50:29.112Z,98007.06
2022-09-27T09:53:13.431Z,98008.22
2022-09-27T09:55:46.559Z,97994.53
2022-09-27T09:58:23.551Z,97981.38
2022-09-27T10:01:00.685Z,97981.50
2022-09-27T10:03:29.119Z,97997.13
2022-09-27T10:05:56.423Z,97996.91
2022-09-27T10:08:24.942Z,97991.81
2022-09-27T10:11:25.826Z,97993.13
2022-09-27T10:14:14.413Z,97995.13
2022-09-27T10:16:48.798Z,97990.88
2022-09-27T10:19:26.933Z,97977.41
2022-09-27T10:21:55.104Z,97969.97
2022-09-27T10:24:23.657Z,97989.56
2022-09-27T10:27:05.915Z,97975.41
2022-09-27T10:29:39.238Z,97973.59
2022-09-27T10:32:31.115Z,97983.03
2022-09-27T10:35:30.341Z,97981.84
2022-09-27T10:38:23.565Z,97991.81
2022-09-27T10:40:56.817Z,97983.75
2022-09-27T10:43:31.067Z,97994.16
2022-09-27T10:46:22.259Z,97976.47
2022-09-27T10:49:17.815Z,97963.44
2022-09-27T10:51:49.921Z,97953.22
2022-09-27T10:54:27.812Z,97943.72
2022-09-27T10:57:14.557Z,97947.09
2022-09-27T10:59:50.405Z,97942.28
2022-09-27T11:02:37.614Z,97960.50
2022-09-27T11:05:15.403Z,97957.34
2022-09-27T11:07:53.890Z,97965.34
2022-09-27T11:10:37.635Z,97959.94
2022-09-27T11:13:15.282Z,97965.47
2022-09-27T11:16:06.297Z,97969.94
2022-09-27T11:18:52.814Z,97967.03
2022-09-27T11:21:20.456Z,97962.28
2022-09-27T11:24:11.968Z,97949.38
2022-09-27T11:27:18.290Z,97944.19
2022-09-27T11:30:20.247Z,97947.78
2022-09-27T11:33:55.112Z,97938.31
2022-09-27T11:37:02.360Z,97952.19
2022-09-27T11:39:54.291Z,97953.44
2022-09-27T11:42:43.448Z,97947.72
2022-09-27T11:45:50.274Z,97956.41
2022-09-27T11:48:30.274Z,97952.50
2022-09-27T11:51:03.956Z,97952.22
2022-09-27T11:53:40.795Z,97953.38
2022-09-27T11:56:29.951Z,97952.66
2022-09-27T11:59:25.291Z,97946.81
2022-09-27T12:01:54.338Z,97944.75
2022-09-27T12:04:24.589Z,97940.06
2022-09-27T12:07:03.937Z,97938.69
2022-09-27T12:09:36.435Z,97937.06
2022-09-27T12:12:13.286Z,97944.06
2022-09-27T12:14:48.692Z,97935.72
2022-09-27T12:17:21.922Z,97927.28
2022-09-27T12:19:58.481Z,97923.84
2022-09-27T12:23:06.052Z,97922.47
2022-09-27T12:25:58.820Z,97916.72
2022-09-27T12:28:51.213Z,97927.09
2022-09-27T12:31:37.503Z,97923.22
2022-09-27T12:34:22.629Z,97940.91
2022-09-27T12:37:19.803Z,97937.56
2022-09-27T12:39:55.907Z,97930.94
2022-09-27T12:42:36.681Z,97932.63
2022-09-27T12:45:15.084Z,97916.53
2022-09-27T12:48:08.684Z,97922.53
2022-09-27T12:50:58.206Z,97928.50
2022-09-27T12:53:38.206Z,97927.25
2022-09-27T12:56:31.197Z,97930.16
2022-09-27T12:59:17.630Z,97919.00
2022-09-27T13:02:24.018Z,97919.78
2022-09-27T13:05:00.844Z,97928.50
2022-09-27T13:07:47.970Z,97926.47
2022-09-27T13:10:34.135Z,97925.31
2022-09-27T13:13:13.061Z,97921.22
2022-09-27T13:15:44.909Z,97919.00
2022-09-27T13:18:38.197Z,97922.59
2022-09-27T13:21:07.374Z,97930.03
2022-09-27T13:23:40.592Z,97933.13
2022-09-27T13:26:32.746Z,97945.22
2022-09-27T13:29:04.846Z,97937.06
2022-09-27T13:31:55.135Z,97927.84
2022-09-27T13:35:18.612Z,97920.06
2022-09-27T13:37:51.734Z,97928.41
2022-09-27T13:40:32.355Z,97923.56
2022-09-27T13:43:13.523Z,97920.31
2022-09-27T13:46:21.074Z,97915.22
2022-09-27T13:48:52.919Z,97900.31
2022-09-27T13:51:31.840Z,97901.47
2022-09-27T13:54:26.165Z,97891.34
2022-09-27T13:56:57.952Z,97886.53
2022-09-27T13:59:44.341Z,97879.13
2022-09-27T14:03:25.664Z,97891.97
2022-09-27T14:06:21.342Z,97894.78
2022-09-27T14:08:59.241Z,97893.81
2022-09-27T14:11:32.589Z,97903.38
2022-09-27T14:14:03.337Z,97906.00
2022-09-27T14:16:40.712Z,97910.22
2022-09-27T14:19:16.453Z,97907.69
2022-09-27T14:22:23.583Z,97908.28
2022-09-27T14:25:05.049Z,97902.59
2022-09-27T14:27:40.794Z,97899.50
2022-09-27T14:30:30.486Z,97902.31
2022-09-27T14:33:31.217Z,97872.06
2022-09-27T14:36:37.496Z,97902.25
2022-09-27T14:39:14.110Z,97905.50
2022-09-27T14:41:41.758Z,97906.09
2022-09-27T14:44:18.771Z,97911.19
2022-09-27T14:46:47.059Z,97913.28
2022-09-27T14:49:25.063Z,97907.59
2022-09-27T14:51:57.165Z,97897.94
2022-09-27T14:54:30.657Z,97878.47
2022-09-27T14:57:00.282Z,97894.50
2022-09-27T14:59:34.339Z,97904.38
2022-09-27T15:02:10.429Z,97905.31
2022-09-27T15:04:38.709Z,97920.28
2022-09-27T15:07:06.031Z,97930.97
2022-09-27T15:09:33.741Z,97920.69
2022-09-27T15:12:05.679Z,97924.84
2022-09-27T15:14:34.202Z,97910.88
2022-09-27T15:17:06.196Z,97898.28
2022-09-27T15:19:34.591Z,97861.88
2022-09-27T15:22:31.875Z,97920.69
2022-09-27T15:25:19.796Z,97913.66
2022-09-27T15:27:50.092Z,97913.06
2022-09-27T15:30:20.044Z,97915.25
2022-09-27T15:32:53.247Z,97900.31
2022-09-27T15:35:33.327Z,97893.88
2022-09-27T15:38:26.565Z,97885.50
2022-09-27T15:40:53.852Z,97888.47
2022-09-27T15:43:32.202Z,97885.56
2022-09-27T15:46:26.662Z,97890.09
2022-09-27T15:49:21.866Z,97889.38
2022-09-27T15:51:52.135Z,97892.66
2022-09-27T15:54:21.278Z,97892.44
2022-09-27T15:56:55.106Z,97900.09
2022-09-27T15:59:28.092Z,97890.63
2022-09-27T16:01:57.257Z,97896.22
2022-09-27T16:04:26.382Z,97889.88
2022-09-27T16:06:54.863Z,97903.09
2022-09-27T16:09:22.247Z,97895.50
2022-09-27T16:11:50.975Z,97895.13
2022-09-27T16:14:19.811Z,97911.59
2022-09-27T16:16:52.185Z,97891.28
2022-09-27T16:19:19.444Z,97889.31
2022-09-27T16:21:48.512Z,97896.50
2022-09-27T16:24:17.436Z,97873.72
2022-09-27T16:26:44.914Z,97875.34
2022-09-27T16:29:14.791Z,97887.72
2022-09-27T16:31:42.827Z,97881.34
2022-09-27T16:34:11.259Z,97877.44
2022-09-27T16:36:39.323Z,97890.97
2022-09-27T16:39:08.278Z,97890.31
2022-09-27T16:41:35.868Z,97889.63
2022-09-27T16:44:11.047Z,97891.59
2022-09-27T16:46:42.061Z,97882.84
2022-09-27T16:49:31.899Z,97872.91
2022-09-27T16:52:01.710Z,97873.75
2022-09-27T16:54:29.808Z,97904.06
2022-09-27T16:56:58.828Z,97905.72
2022-09-27T16:59:26.334Z,97957.63
2022-09-27T17:01:58.101Z,98035.19
2022-09-27T17:04:27.535Z,98049.38
2022-09-27T17:06:55.759Z,98059.13
2022-09-27T17:09:23.145Z,98022.97
2022-09-27T17:11:50.939Z,97911.63
2022-09-27T17:14:18.755Z,97969.66
2022-09-27T17:16:47.736Z,97952.13
2022-09-27T17:19:16.903Z,97929.06
2022-09-27T17:21:45.673Z,97927.50
2022-09-27T17:24:17.149Z,97925.88
2022-09-27T17:26:44.677Z,97955.28
2022-09-27T17:29:12.652Z,97968.38
2022-09-27T17:31:41.038Z,97956.88
2022-09-27T17:34:12.452Z,97944.56
2022-09-27T17:36:41.716Z,97938.59
2022-09-27T17:39:14.048Z,97935.81
2022-09-27T17:41:41.312Z,97910.81
2022-09-27T17:44:12.866Z,97900.06
2022-09-27T17:46:40.964Z,97905.25
2022-09-27T17:49:28.504Z,97908.06
2022-09-27T17:51:55.771Z,97917.59
2022-09-27T17:54:26.255Z,97908.03
2022-09-27T17:56:53.793Z,97915.97
2022-09-27T17:59:22.173Z,97920.31
2022-09-27T18:01:54.136Z,97927.47
2022-09-27T18:04:21.532Z,97924.69
2022-09-27T18:06:48.672Z,97938.63
2022-09-27T18:09:16.930Z,97942.63
2022-09-27T18:11:45.416Z,97940.25
2022-09-27T18:14:12.874Z,97932.31
2022-09-27T18:16:43.289Z,97934.28
2022-09-27T18:19:15.494Z,97945.78
2022-09-27T18:21:43.803Z,97968.06
2022-09-27T18:24:11.785Z,97969.25
2022-09-27T18:26:43.106Z,97968.06
2022-09-27T18:29:12.070Z,97995.81
2022-09-27T18:31:47.370Z,97986.66
2022-09-27T18:34:17.915Z,98004.16
2022-09-27T18:36:45.660Z,98018.06
2022-09-27T18:39:19.326Z,98009.34
2022-09-27T18:41:50.964Z,98021.25
2022-09-27T18:44:18.243Z,98033.94
2022-09-27T18:46:46.287Z,98047.06
2022-09-27T18:49:15.223Z,98058.19
2022-09-27T18:51:46.361Z,98055.38
2022-09-27T18:54:19.422Z,98060.16
2022-09-27T18:56:48.545Z,98080.41
2022-09-27T18:59:17.418Z,98111.41
2022-09-27T19:01:46.125Z,98092.72
2022-09-27T19:04:20.444Z,98064.78
2022-09-27T19:06:50.574Z,98117.31
2022-09-27T19:09:18.410Z,98133.97
2022-09-27T19:11:46.091Z,98112.94
2022-09-27T19:14:22.809Z,98111.31
2022-09-27T19:16:50.088Z,98083.53
2022-09-27T19:19:20.173Z,98071.25
2022-09-27T19:22:01.654Z,98058.53
2022-09-27T19:24:29.103Z,98051.78
2022-09-27T19:27:23.987Z,98044.25
2022-09-27T19:29:51.726Z,98043.03
2022-09-27T19:32:19.570Z,98058.13
2022-09-27T19:34:47.802Z,98044.25
2022-09-27T19:37:14.805Z,98047.84
2022-09-27T19:39:41.999Z,98028.34
2022-09-27T19:42:09.064Z,98020.34
2022-09-27T19:44:36.358Z,98009.22
2022-09-27T19:47:03.468Z,98004.41
2022-09-27T19:49:30.690Z,98016.75
2022-09-27T19:51:57.736Z,98004.41
2022-09-27T19:54:25.074Z,98001.22
2022-09-27T19:56:52.252Z,98015.50
2022-09-27T19:59:19.549Z,98033.38
2022-09-27T20:01:46.825Z,98048.06
2022-09-27T20:04:14.269Z,98057.97
2022-09-27T20:06:41.668Z,98073.84
2022-09-27T20:09:10.239Z,98059.09
2022-09-27T20:11:37.587Z,98076.19
2022-09-27T20:14:04.714Z,98075.00
2022-09-27T20:16:32.309Z,98076.16
2022-09-27T20:19:01.252Z,98088.03
2022-09-27T20:21:32.943Z,98067.72
2022-09-27T20:24:02.171Z,98057.81
2022-09-27T20:26:31.386Z,98068.56
2022-09-27T20:29:00.547Z,98063.03
2022-09-27T20:31:30.395Z,98058.69
2022-09-27T20:33:57.650Z,98076.94
2022-09-27T20:36:33.844Z,98086.06
2022-09-27T20:39:06.085Z,98096.00
2022-09-27T20:41:38.421Z,98079.72
2022-09-27T20:44:10.935Z,98080.09
2022-09-27T20:46:39.482Z,98100.34
2022-09-27T20:49:14.702Z,98105.91
2022-09-27T20:51:44.001Z,98107.09
2022-09-27T20:54:12.950Z,98097.19
2022-09-27T20:56:42.939Z,98096.78
2022-09-27T20:59:16.115Z,98099.53
2022-09-27T21:01:45.639Z,98103.06
2022-09-27T21:04:17.384Z,98105.50
2022-09-27T21:06:44.948Z,98099.53
2022-09-27T21:09:18.647Z,98106.28
2022-09-27T21:11:48.693Z,98103.44
2022-09-27T21:14:16.016Z,98100.22
2022-09-27T21:16:43.209Z,98094.66
2022-09-27T21:19:10.737Z,98088.75
2022-09-27T21:21:37.849Z,98085.13
2022-09-27T21:24:05.348Z,98090.31
2022-09-27T21:26:34.144Z,98092.25
2022-09-27T21:29:11.869Z,98093.41
2022-09-27T21:31:39.138Z,98095.00
2022-09-27T21:34:06.943Z,98102.47
2022-09-27T21:36:39.041Z,98098.47
2022-09-27T21:39:08.935Z,98105.97
2022-09-27T21:41:38.924Z,98096.41
2022-09-27T21:44:06.961Z,98099.97
2022-09-27T21:46:34.442Z,98117.03
2022-09-27T21:49:02.734Z,98099.16
2022-09-27T21:51:37.474Z,98105.50
2022-09-27T21:54:07.674Z,98087.97
2022-09-27T21:56:37.668Z,98104.25
2022-09-27T21:59:05.999Z,98113.75
2022-09-27T22:01:35.096Z,98112.13
2022-09-27T22:04:05.083Z,98104.56
2022-09-27T22:06:37.474Z,98098.56
2022-09-27T22:09:11.793Z,98102.84
2022-09-27T22:11:43.975Z,98093.72
2022-09-27T22:14:12.453Z,98106.84
2022-09-27T22:16:39.869Z,98097.34
2022-09-27T22:19:08.127Z,98090.53
2022-09-27T22:21:37.154Z,98085.63
2022-09-27T22:24:08.222Z,98109.94
2022-09-27T22:26:36.738Z,98109.84
2022-09-27T22:29:05.058Z,98098.38
2022-09-27T22:31:32.272Z,98107.94
2022-09-27T22:34:02.533Z,98101.97
2022-09-27T22:36:31.066Z,98101.16
2022-09-27T22:38:58.438Z,98109.06
2022-09-27T22:41:26.109Z,98110.94
2022-09-27T22:43:53.698Z,98104.53
2022-09-27T22:46:22.063Z,98102.47
2022-09-27T22:48:49.846Z,98110.38
2022-09-27T22:51:17.934Z,98111.59
2022-09-27T22:53:46.310Z,98116.66
2022-09-27T22:56:20.392Z,98117.81
2022-09-27T22:58:48.697Z,98119.78
2022-09-27T23:01:17.314Z,98128.56
2022-09-27T23:03:45.802Z,98125.78
2022-09-27T23:06:15.024Z,98126.16
2022-09-27T23:08:42.644Z,98127.38
2022-09-27T23:11:15.157Z,98128.84
2022-09-27T23:13:43.986Z,98094.09
2022-09-27T23:16:20.302Z,98127.63
2022-09-27T23:18:47.923Z,98127.22
2022-09-27T23:21:16.151Z,98129.66
2022-09-27T23:23:45.173Z,98130.81
2022-09-27T23:26:14.762Z,98107.28
2022-09-27T23:28:42.397Z,98130.41
2022-09-27T23:31:14.602Z,98130.41
2022-09-27T23:33:45.638Z,98135.56
2022-09-27T23:36:18.622Z,98150.66
2022-09-27T23:38:48.658Z,98139.59
2022-09-27T23:41:17.129Z,98132.41
2022-09-27T23:43:45.219Z,98122.59
2022-09-27T23:46:12.587Z,98128.50
2022-09-27T23:48:40.295Z,98138.81
2022-09-27T23:51:10.296Z,98128.84
2022-09-27T23:53:38.656Z,98116.44
2022-09-27T23:56:13.000Z,98108.50
2022-09-27T23:58:42.947Z,98122.13
